AirNav   ProFlight Series 2 Aviation Headset
 
 1025 users online  

9MI7 Glen Oaks Heliport
Novi, Michigan, USA

GOING TO NOVI?


FAA INFORMATION EFFECTIVE 18 JUNE 2020

Location

FAA Identifier: 9MI7
Lat/Long: 42-29-24.1230N 083-27-54.7670W
42-29.402050N 083-27.912783W
42.4900342,-83.4652131
(estimated)
Elevation: 920 ft. / 280 m (estimated)
Variation: 06W (1985)
Time zone: UTC -4 (UTC -5 during Standard Time)
Zip code: 48377

Heliport Operations

Heliport use: Private use, PERSONAL USE.
Activation date: 10/1984
Control tower: no
ARTCC: CLEVELAND CENTER
FSS: LANSING FLIGHT SERVICE STATION
Attendance: UNATNDD
Wind indicator: yes
Segmented circle: no

Heliport Communications

WX ASOS at PTK (11 nm N): 125.025 (248-886-8551)
WX AWOS-3 at VLL (13 nm E): 119.475 (248-288-4649)
WX ASOS at YIP (15 nm S): PHONE 734-961-6843
WX ASOS at DTW (17 nm S): 133.675 (734-955-5015)

Nearby radio navigation aids

VOR radial/distance  VOR name  Freq  Var
SVMr052/7.5SALEM VORTAC114.3003W
DXOr351/17.2DETROIT VOR/DME113.4006W
CRLr002/26.5CARLETON VOR/DME115.7003W
FNTr163/31.2FLINT VORTAC116.9006W

 
NDB name  Hdg/Dist  Freq  Var  ID
GROSSE ILE336/27.141907WRYS .-. -.-- ...
TECUMSEH040/33.123906WTCU - -.-. ..-

Heliport Services

Runway Information

Helipad H1

Dimensions: 20 x 20 ft. / 6 x 6 m
Surface: concrete
Traffic pattern: leftleft

Heliport Ownership and Management from official FAA records

Ownership: Privately-owned
Owner: NOVI INVESTMENTS
43100 TWELVE OAKS CRESCENT
NOVI, MI 48377
Phone 810-348-7550
Manager: G STIEHLER
43100 TWELVE OAKS CRESCENT
NOVI, MI 48377
Phone 810-348-0741
APT A106.

Additional Remarks

FOR CD CTC DETROIT APCH AT 800-499-8181.

Instrument Procedures

There are no published instrument procedures at 9MI7.

Some nearby airports with instrument procedures:

Y47 - Oakland Southwest Airport (7 nm W)
1D2 - Canton-Plymouth-Mettetal Airport (9 nm S)
KPTK - Oakland County International Airport (11 nm N)
KVLL - Oakland/Troy Airport (13 nm E)
KYIP - Willow Run Airport (15 nm S)
KDTW - Detroit Metropolitan Wayne County Airport (17 nm S)
 
Loc | Ops | Rwys | IFR | FBO | Links
Com | Nav | Svcs | Stats | Notes
Area around 9MI7 (Glen Oaks Heliport)
 
Road maps at: MapQuest Bing Google
 
Aerial photo
No photo
 
Sectional chart

 
Airport distance calculator
Flying to Glen Oaks Heliport? Find the distance to fly.

From to 9MI7

Sunrise and sunset
Times for 12-Jul-2020
 Local
(UTC-4)
 Zulu
(UTC)
Morning civil twilight05:3509:35
Sunrise06:0910:09
Sunset21:1001:10
Evening civil twilight21:4401:44

Current date and time
Zulu (UTC)  12-Jul-2020 19:04:08
Local (UTC-4)  12-Jul-2020 15:04:08
 
METAR
KPTK 
11nm N 
121853Z 32009KT 280V350 10SM SCT055 BKN250 25/14 A2981 RMK AO2 SLP088 T02500144
KVLL 
13nm E 
121855Z AUTO 30008G16KT 10SM SCT044 SCT050 27/15 A2982 RMK AO2 T02690152
KYIP 
16nm S 
121853Z 31009G14KT 10SM SCT050 BKN070 29/16 A2982 RMK AO2 SLP088 T02890161
KDTW 
16nm S 
121853Z 30009KT 10SM FEW045 BKN060 BKN080 27/16 A2981 RMK AO2 SLP088 T02670156
KARB 
20nm SW 
734-668-7173
121853Z 34006G15KT 10SM FEW047 27/17 A2981 RMK AO2 SLP089 T02670167 $
KDET 
21nm E 
121853Z 32011G16KT 10SM FEW050 FEW060 SCT075 28/16 A2980 RMK AO2 SLP085 T02780156
TAF
KPTK 
11nm N 
121734Z 1218/1318 32010KT P6SM BKN045 FM130200 02004KT P6SM SCT080 FM131000 32005KT P6SM SCT250 FM131400 33007KT P6SM BKN050
KYIP 
16nm S 
121734Z 1218/1318 33007KT P6SM BKN045 FM130200 02006KT P6SM SCT080 FM130900 35005KT P6SM SCT250 FM131500 35006KT P6SM BKN050
KDTW 
16nm S 
121734Z 1218/1324 33007KT P6SM BKN050 FM130200 02006KT P6SM SCT080 FM130900 35005KT P6SM SCT250 FM131500 35006KT P6SM BKN050
NOTAMs
Click for the latest NOTAMs
NOTAMs are issued by the DoD/FAA and will open in a separate window not controlled by AirNav.

 

 
 

Would you like to see your business listed on this page?

 If your business provides an interesting product or service to pilots, flight crews, aircraft, or users of the Glen Oaks Heliport, you should consider listing it here.  To start the listing process, click on the button below
 
Add a business
 

Other Pages about Glen Oaks Heliport

Update a link
 
Copyright © AirNav, LLC. All rights reserved. Privacy Policy  Contact